Time;durP1;ratioP1;P1;durP2;ratioP2;P2;SDS_P1;SDS_P2;PMS_P1;PMS_P2;Temp;Humidity;BMP_temperature;BMP_pressure;BME280_temperature;BME280_humidity;BME280_pressure;Samples;Min_cycle;Max_cycle;Signal;HPM_P1;HPM_P2
2022/05/28 00:00:01;;;;;;;12.83;7.73;;;;;;;20.00;100.00;62942.00;5093920;28;20200;-74
2022/05/28 00:02:29;;;;;;;14.43;8.17;;;;;;;20.03;100.00;62945.78;5094424;28;20261;-74
2022/05/28 00:04:56;;;;;;;12.70;7.97;;;;;;;20.02;100.00;62946.75;5092826;28;20196;-75
2022/05/28 00:07:24;;;;;;;12.43;7.70;;;;;;;20.01;100.00;62943.09;5094148;28;20203;-74
2022/05/28 00:09:51;;;;;;;15.23;8.27;;;;;;;19.72;100.00;62914.34;5093805;28;20223;-75
2022/05/28 00:12:24;;;;;;;13.03;7.73;;;;;;;19.29;100.00;62863.75;5093848;28;20207;-76
2022/05/28 00:14:51;;;;;;;14.63;7.73;;;;;;;19.70;100.00;62907.00;5093623;28;20196;-73
2022/05/28 00:17:18;;;;;;;17.13;9.13;;;;;;;18.93;100.00;62824.88;5093732;28;20287;-74
2022/05/28 00:19:45;;;;;;;13.40;8.17;;;;;;;19.53;100.00;62891.75;5075425;28;20629;-75
2022/05/28 00:22:15;;;;;;;12.53;7.90;;;;;;;19.58;100.00;62894.03;5075593;28;20210;-73
2022/05/28 00:24:42;;;;;;;13.07;7.93;;;;;;;19.40;100.00;62877.69;5093186;28;20192;-75
2022/05/28 00:27:10;;;;;;;13.73;8.00;;;;;;;19.34;100.00;62869.16;5093541;28;20227;-73
2022/05/28 00:29:38;;;;;;;14.63;7.87;;;;;;;19.29;100.00;62866.34;5093448;28;20774;-77
2022/05/28 00:32:06;;;;;;;10.97;7.90;;;;;;;19.10;100.00;62845.81;5093239;28;20257;-78
2022/05/28 00:34:34;;;;;;;15.40;8.50;;;;;;;19.09;100.00;62844.72;5093201;28;20355;-73
2022/05/28 00:37:01;;;;;;;12.40;8.07;;;;;;;19.01;100.00;62835.56;5092362;28;20221;-76
2022/05/28 00:39:28;;;;;;;15.57;8.30;;;;;;;19.05;100.00;62843.00;5093562;28;20215;-74
2022/05/28 00:41:56;;;;;;;10.70;8.27;;;;;;;18.91;100.00;62827.88;5092619;28;20291;-74
2022/05/28 00:44:23;;;;;;;15.07;8.63;;;;;;;18.93;100.00;62824.31;5093284;28;20659;-73
2022/05/28 00:46:55;;;;;;;13.73;8.27;;;;;;;18.44;100.00;62774.53;5092968;28;20265;-72
2022/05/28 00:49:24;;;;;;;12.10;7.90;;;;;;;18.95;100.00;62821.88;5093158;28;20322;-78
2022/05/28 00:51:55;;;;;;;16.27;8.73;;;;;;;18.49;100.00;62777.88;5093175;28;20199;-77
2022/05/28 00:54:23;;;;;;;19.50;9.07;;;;;;;18.70;100.00;62805.19;5093064;28;20579;-77
2022/05/28 00:56:51;;;;;;;19.53;8.93;;;;;;;18.77;100.00;62809.63;5082505;28;20272;-73
2022/05/28 00:59:18;;;;;;;16.37;8.93;;;;;;;18.34;100.00;62763.72;5092896;28;20677;-74
2022/05/28 01:01:46;;;;;;;14.90;8.50;;;;;;;18.69;100.00;62803.56;5092766;28;20204;-76
2022/05/28 01:04:27;;;;;;;13.17;8.33;;;;;;;18.71;100.00;62806.28;5092280;28;20200;-74
2022/05/28 01:07:00;;;;;;;16.33;8.27;;;;;;;18.56;100.00;62795.22;5092708;28;20680;-73
2022/05/28 01:09:38;;;;;;;14.77;7.03;;;;;;;18.82;100.00;62815.03;5092045;28;20228;-75
2022/05/28 01:12:11;;;;;;;14.97;8.60;;;;;;;18.96;100.00;62833.25;5092256;28;20237;-76
2022/05/28 01:14:48;;;;;;;8.63;7.27;;;;;;;19.10;100.00;62840.63;5092691;28;20284;-75
2022/05/28 01:17:21;;;;;;;13.20;8.40;;;;;;;19.06;100.00;62844.06;5082054;28;20207;-74
2022/05/28 01:19:59;;;;;;;10.97;7.80;;;;;;;19.09;100.00;62846.78;5092623;28;20207;-76
2022/05/28 01:22:43;;;;;;;13.70;8.70;;;;;;;18.98;100.00;62834.88;5092953;28;20257;-73
2022/05/28 01:25:21;;;;;;;10.60;7.90;;;;;;;18.98;100.00;62830.25;5091925;28;20234;-75
2022/05/28 01:27:52;;;;;;;15.20;8.03;;;;;;;19.08;100.00;62843.66;5074355;28;20346;-74
2022/05/28 01:30:20;;;;;;;10.93;8.03;;;;;;;19.00;100.00;62834.47;5093991;28;20285;-73
2022/05/28 01:32:52;;;;;;;14.93;7.40;;;;;;;19.10;100.00;62840.63;5101714;28;20199;-73
2022/05/28 01:35:22;;;;;;;11.97;5.70;;;;;;;19.11;100.00;62844.31;5092365;28;20253;-74
2022/05/28 01:37:51;;;;;;;11.07;5.07;;;;;;;19.06;100.00;62843.53;5091134;28;20219;-73
2022/05/28 01:40:21;;;;;;;11.60;5.23;;;;;;;18.97;100.00;62833.81;5092335;28;20739;-73
2022/05/28 01:42:52;;;;;;;10.37;5.47;;;;;;;19.03;100.00;62833.09;5092083;28;20253;-74
2022/05/28 01:45:25;;;;;;;11.73;5.50;;;;;;;19.09;100.00;62846.78;5091539;28;20207;-75
2022/05/28 01:47:56;;;;;;;9.63;5.17;;;;;;;19.07;100.00;62840.00;5092170;28;20214;-74
2022/05/28 01:50:26;;;;;;;10.03;5.33;;;;;;;19.19;100.00;62855.00;5092142;28;20227;-74
2022/05/28 01:52:55;;;;;;;9.13;4.77;;;;;;;19.27;100.00;62866.75;5092385;28;20639;-73
2022/05/28 01:55:26;;;;;;;12.00;5.50;;;;;;;18.96;100.00;62838.44;5091324;28;20207;-74
2022/05/28 01:57:54;;;;;;;7.77;5.40;;;;;;;19.35;100.00;62875.44;5091667;28;20283;-75
2022/05/28 02:00:23;;;;;;;11.30;5.43;;;;;;;19.38;100.00;62877.59;5092102;28;20256;-74
2022/05/28 02:02:52;;;;;;;13.10;5.53;;;;;;;19.49;100.00;62890.00;5091592;28;20203;-76
2022/05/28 02:05:19;;;;;;;9.37;5.60;;;;;;;19.57;100.00;62892.94;5091146;28;20287;-74
2022/05/28 02:07:46;;;;;;;12.37;5.30;;;;;;;19.65;100.00;62901.59;5091519;28;20640;-74
2022/05/28 02:10:16;;;;;;;10.33;5.70;;;;;;;19.59;100.00;62898.22;5091633;28;20284;-73
2022/05/28 02:12:53;;;;;;;9.17;5.23;;;;;;;19.15;100.00;62848.09;5091780;28;20262;-73
2022/05/28 02:15:39;;;;;;;9.23;5.37;;;;;;;19.53;100.00;62893.78;5091284;28;20290;-72
2022/05/28 02:18:18;;;;;;;13.60;5.63;;;;;;;19.41;100.00;62878.25;5091676;28;20199;-74
2022/05/28 02:20:52;;;;;;;14.03;5.63;;;;;;;19.48;100.00;62885.81;5091402;28;20298;-71
2022/05/28 02:23:26;;;;;;;7.87;5.50;;;;;;;19.59;100.00;62895.09;5091668;28;20689;-76
2022/05/28 02:25:58;;;;;;;12.67;5.73;;;;;;;19.67;100.00;62908.91;5091526;28;20223;-73
2022/05/28 02:28:26;;;;;;;13.13;6.47;;;;;;;19.65;100.00;62901.59;5091513;28;20633;-74
2022/05/28 02:31:02;;;;;;;12.80;6.20;;;;;;;19.72;100.00;62904.00;5091277;28;20199;-77
2022/05/28 02:33:30;;;;;;;9.67;5.77;;;;;;;19.76;100.00;62916.06;5091981;28;20203;-72
2022/05/28 02:35:58;;;;;;;14.10;5.83;;;;;;;19.40;100.00;62879.75;5090950;28;20280;-74
2022/05/28 02:38:25;;;;;;;7.10;5.50;;;;;;;19.76;100.00;62918.66;5090602;28;20628;-74
2022/05/28 02:40:54;;;;;;;11.47;5.60;;;;;;;19.43;100.00;62880.94;5091866;28;20195;-73
2022/05/28 02:43:21;;;;;;;10.07;5.67;;;;;;;19.80;100.00;62920.91;5092163;28;20253;-73
2022/05/28 02:45:49;;;;;;;12.10;6.00;;;;;;;19.85;100.00;62925.78;5092532;28;20621;-76
2022/05/28 02:48:17;;;;;;;11.43;5.70;;;;;;;19.88;100.00;62926.44;5092985;28;20633;-76
2022/05/28 02:50:44;;;;;;;12.30;5.47;;;;;;;19.86;100.00;62929.47;5091198;28;20758;-76
2022/05/28 02:53:13;;;;;;;13.10;4.97;;;;;;;19.74;100.00;62911.31;5091102;28;20296;-73
2022/05/28 02:55:40;;;;;;;12.20;4.77;;;;;;;19.98;100.00;62937.25;5091171;28;20196;-75
2022/05/28 02:58:08;;;;;;;11.77;5.70;;;;;;;19.84;100.00;62922.13;5090985;28;20203;-76
2022/05/28 03:00:37;;;;;;;12.57;5.10;;;;;;;19.72;100.00;62909.69;5091307;28;20196;-74
2022/05/28 03:03:04;;;;;;;11.17;5.13;;;;;;;20.03;100.00;62947.84;5091006;28;20215;-74
2022/05/28 03:05:32;;;;;;;10.83;5.00;;;;;;;19.99;100.00;62938.34;5090682;28;20249;-77
2022/05/28 03:08:00;;;;;;;11.67;4.93;;;;;;;20.01;100.00;62940.50;5091384;28;20204;-76
2022/05/28 03:10:28;;;;;;;12.10;5.40;;;;;;;20.04;100.00;62944.28;5091230;28;20227;-73
2022/05/28 03:12:56;;;;;;;9.83;4.90;;;;;;;20.14;100.00;62954.56;5091633;28;20212;-74
2022/05/28 03:15:23;;;;;;;14.60;4.60;;;;;;;20.13;100.00;62954.00;5091791;28;20203;-74
2022/05/28 03:17:59;;;;;;;8.23;4.50;;;;;;;20.16;100.00;62957.25;5091780;28;20257;-74
2022/05/28 03:20:27;;;;;;;13.47;4.73;;;;;;;19.96;100.00;62935.63;5073924;28;20258;-76
2022/05/28 03:22:58;;;;;;;11.50;5.37;;;;;;;20.15;100.00;62955.63;5091692;28;20236;-75
2022/05/28 03:25:25;;;;;;;13.67;4.60;;;;;;;20.13;100.00;62958.63;5085888;28;20208;-73
2022/05/28 03:27:52;;;;;;;9.40;5.37;;;;;;;19.73;100.00;62917.97;5091819;28;20200;-74
2022/05/28 03:30:19;;;;;;;11.60;5.40;;;;;;;20.25;100.00;62971.63;5091496;28;20235;-73
2022/05/28 03:32:46;;;;;;;14.77;5.50;;;;;;;19.98;100.00;62939.84;5093303;28;20200;-73
2022/05/28 03:35:13;;;;;;;13.13;5.37;;;;;;;19.81;100.00;62918.88;5085160;28;20225;-73
2022/05/28 03:37:40;;;;;;;8.20;5.40;;;;;;;19.69;100.00;62906.44;5075710;28;20226;-73
2022/05/28 03:40:10;;;;;;;12.37;5.60;;;;;;;19.54;100.00;62889.72;5095022;28;20265;-73
2022/05/28 03:42:37;;;;;;;12.00;5.83;;;;;;;19.71;100.00;62908.06;5094420;28;20203;-73
2022/05/28 03:45:07;;;;;;;11.37;6.10;;;;;;;19.74;100.00;62911.84;5094214;28;20252;-75
2022/05/28 03:47:33;;;;;;;10.50;5.43;;;;;;;19.65;100.00;62906.75;5093419;28;20199;-73
2022/05/28 03:50:01;;;;;;;10.77;5.63;;;;;;;19.57;100.00;62896.06;5093994;28;20227;-75
2022/05/28 03:52:29;;;;;;;12.67;5.30;;;;;;;19.51;100.00;62891.63;5094363;28;20199;-73
2022/05/28 03:54:56;;;;;;;11.70;5.13;;;;;;;19.62;100.00;62903.53;5093969;28;20199;-72
2022/05/28 03:57:28;;;;;;;8.40;5.37;;;;;;;19.72;100.00;62911.75;5094332;28;20200;-76
2022/05/28 03:59:55;;;;;;;9.83;5.30;;;;;;;19.75;100.00;62912.38;5094366;28;20299;-74
2022/05/28 04:02:23;;;;;;;9.63;5.63;;;;;;;19.70;100.00;62907.00;5094028;28;20212;-73
2022/05/28 04:04:49;;;;;;;13.60;5.90;;;;;;;19.62;100.00;62900.94;5094037;28;20260;-72
2022/05/28 04:07:17;;;;;;;11.07;5.57;;;;;;;19.62;100.00;62903.53;5093747;28;20245;-75
2022/05/28 04:09:44;;;;;;;11.07;6.20;;;;;;;19.66;100.00;62908.38;5075882;28;20709;-73
2022/05/28 04:12:11;;;;;;;9.00;5.87;;;;;;;19.77;100.00;62914.56;5093832;28;20674;-74
2022/05/28 04:14:40;;;;;;;14.53;5.67;;;;;;;19.80;100.00;62917.81;5093469;28;20261;-74
2022/05/28 04:17:07;;;;;;;13.77;5.47;;;;;;;18.93;100.00;62830.03;5093667;28;20200;-74
2022/05/28 04:19:34;;;;;;;11.93;5.53;;;;;;;19.91;100.00;62929.69;5093905;28;20222;-76
2022/05/28 04:22:01;;;;;;;19.50;5.73;;;;;;;19.98;100.00;62942.97;5093852;28;20253;-75
2022/05/28 04:24:29;;;;;;;17.20;5.80;;;;;;;20.08;100.00;62948.06;5093775;28;20199;-74
2022/05/28 04:26:56;;;;;;;10.10;5.83;;;;;;;19.70;100.00;62912.16;5093261;28;20235;-74
2022/05/28 04:29:22;;;;;;;8.27;5.13;;;;;;;20.31;100.00;62972.94;5093555;28;20228;-75
2022/05/28 04:31:52;;;;;;;10.50;5.07;;;;;;;20.46;100.00;62984.00;5093340;28;20268;-74
2022/05/28 04:34:19;;;;;;;17.10;6.27;;;;;;;20.08;100.00;62938.25;5093645;28;20269;-73
2022/05/28 04:36:46;;;;;;;44.33;7.93;;;;;;;20.35;100.00;62977.28;5093097;28;20660;-73
2022/05/28 04:39:13;;;;;;;12.07;5.63;;;;;;;20.09;100.00;62954.31;5093027;28;20762;-74
2022/05/28 04:41:40;;;;;;;14.73;4.83;;;;;;;19.77;100.00;62914.56;5093102;28;20208;-73
2022/05/28 04:44:07;;;;;;;12.70;5.33;;;;;;;19.67;100.00;62906.88;5092705;28;20207;-75
2022/05/28 04:46:34;;;;;;;14.00;6.10;;;;;;;19.48;100.00;62885.81;5074781;28;20663;-73
2022/05/28 04:49:04;;;;;;;20.20;7.13;;;;;;;19.51;100.00;62892.16;5092440;28;20309;-73
2022/05/28 04:51:31;;;;;;;37.37;10.13;;;;;;;19.14;100.00;62849.56;5093057;28;20235;-75
2022/05/28 04:53:59;;;;;;;26.83;9.17;;;;;;;18.79;100.00;62812.34;5092583;28;20233;-74
2022/05/28 04:56:26;;;;;;;32.73;9.90;;;;;;;18.71;100.00;62805.72;5092914;28;20205;-74
2022/05/28 04:58:53;;;;;;;27.23;9.77;;;;;;;18.49;100.00;62777.38;5092248;28;20241;-75
2022/05/28 05:01:22;;;;;;;18.63;8.50;;;;;;;18.36;100.00;62765.88;5093181;28;20200;-73
2022/05/28 05:03:49;;;;;;;32.77;9.10;;;;;;;18.58;100.00;62791.69;5092854;28;20204;-72
2022/05/28 05:06:18;;;;;;;33.17;9.00;;;;;;;18.45;100.00;62773.56;5092901;28;20666;-73
2022/05/28 05:08:45;;;;;;;18.23;8.93;;;;;;;18.42;100.00;62769.78;5092537;28;20199;-73
2022/05/28 05:11:13;;;;;;;29.40;9.80;;;;;;;18.35;100.00;62762.22;5092725;28;20703;-74
2022/05/28 05:13:40;;;;;;;21.60;9.43;;;;;;;18.02;100.00;62727.16;5091936;28;20294;-77
2022/05/28 05:16:09;;;;;;;22.97;9.97;;;;;;;16.63;100.00;62577.78;5092499;28;20230;-74
2022/05/28 05:18:37;;;;;;;29.07;11.00;;;;;;;17.73;100.00;62696.41;5092502;28;20199;-75
2022/05/28 05:21:04;;;;;;;22.80;10.80;;;;;;;17.56;100.00;62680.09;5092663;28;20281;-75
2022/05/28 05:23:33;;;;;;;27.33;12.40;;;;;;;17.09;100.00;62627.34;5077475;28;20206;-76
2022/05/28 05:26:00;;;;;;;25.23;12.07;;;;;;;17.55;100.00;62682.13;5092210;28;20296;-74
2022/05/28 05:28:27;;;;;;;21.87;10.53;;;;;;;17.65;100.00;62685.19;5092146;28;20256;-76
2022/05/28 05:30:54;;;;;;;18.83;11.07;;;;;;;17.71;100.00;62696.81;5092391;28;20219;-75
2022/05/28 05:33:20;;;;;;;18.23;11.37;;;;;;;17.94;100.00;62717.97;5087690;28;20191;-77
2022/05/28 05:35:47;;;;;;;28.33;11.03;;;;;;;17.98;100.00;62722.84;5091430;28;20272;-75
2022/05/28 05:38:14;;;;;;;22.30;11.53;;;;;;;18.02;100.00;62727.16;5095763;28;20207;-75
2022/05/28 05:40:42;;;;;;;24.50;11.87;;;;;;;18.13;100.00;62743.66;5091477;28;20253;-76
2022/05/28 05:43:09;;;;;;;19.90;11.07;;;;;;;18.34;100.00;62759.09;5077532;28;20199;-75
2022/05/28 05:45:38;;;;;;;18.03;10.70;;;;;;;18.37;100.00;62770.06;5091553;28;20203;-74
2022/05/28 05:48:06;;;;;;;19.90;11.57;;;;;;;18.54;100.00;62787.91;5091621;28;20192;-76
2022/05/28 05:50:34;;;;;;;18.50;10.90;;;;;;;18.76;100.00;62811.66;5091814;28;20705;-76
2022/05/28 05:53:01;;;;;;;19.77;10.67;;;;;;;18.81;100.00;62809.34;5091853;28;20203;-76
2022/05/28 05:55:28;;;;;;;19.60;10.37;;;;;;;19.00;100.00;62837.59;5091577;28;20203;-74
2022/05/28 05:57:56;;;;;;;16.50;8.97;;;;;;;19.27;100.00;62861.06;5091614;28;20192;-74
2022/05/28 06:00:23;;;;;;;19.77;10.53;;;;;;;19.62;100.00;62896.28;5091589;28;20203;-75
2022/05/28 06:02:50;;;;;;;14.70;10.23;;;;;;;19.82;100.00;62919.97;5081696;28;20200;-78
2022/05/28 06:05:17;;;;;;;21.33;10.37;;;;;;;20.25;100.00;62969.06;5080686;28;20631;-76
2022/05/28 06:07:45;;;;;;;19.23;9.70;;;;;;;20.34;100.00;62976.22;5074552;28;20335;-75
2022/05/28 06:10:13;;;;;;;20.43;10.17;;;;;;;20.86;100.00;63037.63;5082550;28;20231;-76
2022/05/28 06:12:41;;;;;;;19.17;8.50;;;;;;;21.00;100.00;63047.59;5078948;28;20723;-75
2022/05/28 06:15:14;;;;;;;16.03;7.87;;;;;;;20.67;100.00;63014.47;5090668;28;20211;-74
2022/05/28 06:17:41;;;;;;;15.63;8.60;;;;;;;20.56;100.00;63000.00;5090133;28;20273;-73
2022/05/28 06:20:12;;;;;;;14.93;7.83;;;;;;;21.04;100.00;63054.00;5089668;28;20208;-75
2022/05/28 06:22:40;;;;;;;15.10;7.33;;;;;;;21.32;100.00;63081.69;5090627;28;20203;-75
2022/05/28 06:25:08;;;;;;;14.60;7.07;;;;;;;21.39;100.00;63093.94;5090512;28;20720;-75
2022/05/28 06:27:35;;;;;;;13.97;6.87;;;;;;;21.56;100.00;63104.53;5089949;28;20227;-77
2022/05/28 06:30:02;;;;;;;16.60;7.00;;;;;;;21.54;100.00;63107.56;5090561;28;20232;-75
2022/05/28 06:32:30;;;;;;;14.03;6.93;;;;;;;21.14;100.00;63064.25;5091190;28;20203;-75
2022/05/28 06:34:57;;;;;;;11.27;6.90;;;;;;;21.84;100.00;63137.47;5091019;28;20648;-75
2022/05/28 06:37:25;;;;;;;10.03;6.40;;;;;;;22.16;100.00;63172.13;5090469;28;20702;-75
2022/05/28 06:39:53;;;;;;;14.00;6.70;;;;;;;21.67;100.00;63116.47;5091201;28;20234;-75
2022/05/28 06:42:21;;;;;;;11.17;6.40;;;;;;;22.61;100.00;63220.34;5091057;28;20203;-74
2022/05/28 06:44:55;;;;;;;19.77;6.57;;;;;;;22.81;100.00;63242.03;5091297;28;20208;-74
2022/05/28 06:47:22;;;;;;;11.00;5.83;;;;;;;23.14;100.00;63277.25;5090642;28;20207;-74
2022/05/28 06:51:01;;;;;;;16.63;5.97;;;;;;;23.56;100.00;63322.81;5091074;28;20195;-73
2022/05/28 06:52:37;;;;;;;12.03;5.90;;;;;;;23.44;100.00;63312.41;5091289;28;20556;-74
2022/05/28 06:55:06;;;;;;;13.13;5.93;;;;;;;22.71;100.00;63230.66;5090869;28;20261;-73
2022/05/28 06:57:32;;;;;;;11.63;5.47;;;;;;;23.50;100.00;63316.31;5090886;28;20299;-75
2022/05/28 07:00:02;;;;;;;16.77;5.83;;;;;;;23.85;100.00;63354.25;5090668;28;20196;-74
2022/05/28 07:02:29;;;;;;;14.80;5.50;;;;;;;24.25;100.00;63392.47;5091033;28;20563;-75
2022/05/28 07:04:57;;;;;;;12.90;6.00;;;;;;;24.14;100.00;63385.75;5091069;28;20253;-76
2022/05/28 07:07:24;;;;;;;15.37;5.60;;;;;;;24.22;100.00;63393.91;5090944;28;20633;-74
2022/05/28 07:09:51;;;;;;;17.70;5.93;;;;;;;23.92;100.00;63361.88;5094416;28;20231;-75
2022/05/28 07:12:18;;;;;;;10.87;6.03;;;;;;;24.00;100.00;63370.53;5094729;28;20200;-76
2022/05/28 07:14:48;;;;;;;13.93;6.23;;;;;;;24.11;100.00;63382.50;5095084;28;20200;-74
2022/05/28 07:17:15;;;;;;;13.00;6.03;;;;;;;24.36;100.00;63408.53;5094367;28;20207;-74
2022/05/28 07:19:42;;;;;;;13.57;6.00;;;;;;;24.52;100.00;63428.50;5094856;28;20282;-74
2022/05/28 07:22:11;;;;;;;12.43;5.60;;;;;;;24.66;100.00;63446.31;5094552;28;20205;-74
2022/05/28 07:24:38;;;;;;;11.57;6.03;;;;;;;25.22;100.00;63501.91;5094604;28;20264;-73
2022/05/28 07:27:06;;;;;;;18.20;5.60;;;;;;;25.12;100.00;63491.06;5094494;28;20229;-73
2022/05/28 07:29:34;;;;;;;18.73;6.00;;;;;;;24.37;100.00;63407.03;5094181;28;20258;-73
2022/05/28 07:32:01;;;;;;;18.83;5.83;;;;;;;24.91;100.00;63468.28;5094424;28;20235;-73
2022/05/28 07:34:28;;;;;;;20.50;5.17;;;;;;;25.39;100.00;63517.78;5094468;28;20196;-75
2022/05/28 07:36:54;;;;;;;11.40;3.83;;;;;;;25.49;100.00;63531.28;5093255;28;20706;-74
2022/05/28 07:39:23;;;;;;;12.70;3.63;;;;;;;25.73;100.00;63557.34;5098818;28;20739;-75
2022/05/28 07:41:49;;;;;;;15.70;4.07;;;;;;;25.84;100.00;63569.28;5096519;28;20203;-73
2022/05/28 07:44:17;;;;;;;9.70;3.30;;;;;;;26.25;100.00;63612.78;5094443;28;20206;-73
2022/05/28 07:46:44;;;;;;;13.50;4.30;;;;;;;26.16;100.00;63603.53;5094604;28;20200;-75
2022/05/28 07:49:12;;;;;;;13.20;3.60;;;;;;;26.50;100.00;63645.22;5093765;28;20264;-74
2022/05/28 07:51:39;;;;;;;8.93;3.53;;;;;;;26.63;100.00;63652.03;5094173;28;20219;-73
2022/05/28 07:54:07;;;;;;;15.50;4.37;;;;;;;26.91;100.00;63687.19;5093839;28;20344;-73
2022/05/28 08:02:41;;;;;;;10.90;4.20;;;;;;;26.90;100.00;63688.72;5094199;28;20200;-74
2022/05/28 08:05:09;;;;;;;10.63;3.90;;;;;;;26.83;100.00;63673.25;5093752;28;20211;-74
2022/05/28 08:07:37;;;;;;;9.73;3.70;;;;;;;27.62;100.00;63766.53;5093614;28;20651;-76
2022/05/28 08:10:05;;;;;;;15.00;4.40;;;;;;;27.44;100.00;63742.25;5093792;28;20253;-76
2022/05/28 08:12:34;;;;;;;14.57;4.37;;;;;;;27.22;100.00;63720.38;5093194;28;20683;-76
2022/05/28 08:15:03;;;;;;;15.17;4.10;;;;;;;27.66;100.00;63765.09;5075420;28;20295;-75
2022/05/28 08:17:32;;;;;;;13.20;4.07;;;;;;;27.63;100.00;63767.63;5093873;28;20724;-73
2022/05/28 08:20:00;;;;;;;16.00;5.17;;;;;;;27.49;100.00;63747.69;5094428;28;20238;-74
2022/05/28 08:25:11;;;;;;;15.90;4.23;;;;;;;27.83;100.00;63789.38;5093305;28;20517;-73
2022/05/28 08:27:40;;;;;;;10.43;3.77;;;;;;;27.89;100.00;63793.28;5093092;28;20232;-74
2022/05/28 08:30:09;;;;;;;15.67;4.10;;;;;;;27.25;100.00;63724.16;5093590;28;20779;-74
2022/05/28 08:32:36;;;;;;;11.67;3.87;;;;;;;26.95;100.00;63691.00;5093158;28;20219;-75
2022/05/28 08:35:05;;;;;;;8.37;3.70;;;;;;;27.72;100.00;63772.19;5092498;28;20249;-74
2022/05/28 08:37:32;;;;;;;9.70;3.93;;;;;;;27.74;100.00;63773.81;5091771;28;20223;-75
2022/05/28 08:39:59;;;;;;;12.43;4.13;;;;;;;27.85;100.00;63785.78;5093330;28;20588;-73
2022/05/28 08:42:29;;;;;;;10.00;4.30;;;;;;;28.14;100.00;63812.13;5093063;28;20195;-74
2022/05/28 08:44:58;;;;;;;10.93;4.70;;;;;;;28.56;100.00;63863.13;5093167;28;20203;-76
2022/05/28 08:47:39;;;;;;;11.83;3.97;;;;;;;28.40;100.00;63845.69;5093370;28;20245;-74
2022/05/28 08:50:08;;;;;;;10.70;4.00;;;;;;;28.51;100.00;63857.66;5094029;28;20210;-73
2022/05/28 08:52:42;;;;;;;9.23;4.10;;;;;;;28.34;100.00;63837.06;5092502;28;20307;-73
2022/05/28 08:55:12;;;;;;;10.13;4.00;;;;;;;28.21;100.00;63825.00;5092923;28;20216;-74
2022/05/28 08:57:57;;;;;;;13.63;4.60;;;;;;;28.70;100.00;63877.81;5092977;28;20757;-74
2022/05/28 09:00:33;;;;;;;9.50;3.83;;;;;;;27.85;100.00;63785.78;5092869;28;20615;-77
2022/05/28 09:03:06;;;;;;;14.83;4.30;;;;;;;28.63;100.00;63867.59;5092704;28;20200;-75
2022/05/28 09:05:38;;;;;;;12.17;4.20;;;;;;;28.71;100.00;63878.94;5092348;28;20688;-75
2022/05/28 09:08:07;;;;;;;10.97;4.30;;;;;;;29.16;100.00;63928.50;5092407;28;20258;-74
2022/05/28 09:10:39;;;;;;;13.93;5.67;;;;;;;29.41;100.00;63957.28;5092187;28;20726;-74
2022/05/28 09:13:12;;;;;;;15.10;4.60;;;;;;;29.54;100.00;63968.84;5092109;28;20215;-74
2022/05/28 09:15:42;;;;;;;11.23;4.93;;;;;;;29.20;100.00;63938.13;5092494;28;20205;-73
2022/05/28 09:18:12;;;;;;;13.80;4.70;;;;;;;29.37;100.00;63950.31;5091916;28;20326;-75
2022/05/28 09:20:44;;;;;;;20.53;5.43;;;;;;;29.46;100.00;63960.13;5074402;28;20205;-74
2022/05/28 09:23:11;;;;;;;15.43;4.93;;;;;;;29.35;100.00;63945.50;5092227;28;20201;-75
2022/05/28 09:25:43;;;;;;;10.63;5.63;;;;;;;29.52;100.00;63966.66;5091840;28;20220;-74
2022/05/28 09:28:25;;;;;;;10.93;4.60;;;;;;;29.40;100.00;63953.59;5073889;28;20209;-75
2022/05/28 09:31:03;;;;;;;13.03;5.17;;;;;;;29.76;100.00;63992.84;5085806;28;20268;-76
2022/05/28 09:33:56;;;;;;;18.27;6.10;;;;;;;29.83;100.00;64005.72;5092307;28;20661;-76
2022/05/28 09:37:02;;;;;;;12.27;4.90;;;;;;;29.57;100.00;63974.72;5098204;28;20228;-75
2022/05/28 09:39:45;;;;;;;13.50;5.57;;;;;;;29.91;100.00;64004.50;5082574;28;20255;-75
2022/05/28 09:42:24;;;;;;;10.93;5.77;;;;;;;30.16;100.00;64036.47;5092003;28;20220;-73
2022/05/28 09:45:16;;;;;;;14.77;5.87;;;;;;;30.04;100.00;64020.75;5092412;28;20242;-75
2022/05/28 09:48:00;;;;;;;14.30;6.00;;;;;;;29.78;100.00;63995.56;5091409;28;20220;-74
2022/05/28 09:50:28;;;;;;;14.17;5.87;;;;;;;28.74;100.00;63884.81;5091868;28;20262;-74
2022/05/28 09:55:58;;;;;;;10.40;5.73;;;;;;;28.93;100.00;63903.44;5092340;28;20272;-76
2022/05/28 09:58:29;;;;;;;15.17;6.10;;;;;;;29.10;100.00;63921.94;5091991;28;20212;-74
2022/05/28 10:01:06;;;;;;;12.33;5.23;;;;;;;29.26;100.00;63935.72;5091671;28;20201;-74
2022/05/28 10:06:23;;;;;;;10.70;5.53;;;;;;;29.43;100.00;63956.84;5091844;28;20208;-76
2022/05/28 10:08:50;;;;;;;12.13;5.70;;;;;;;29.77;100.00;63993.94;5091398;28;20688;-76
2022/05/28 10:11:19;;;;;;;11.37;6.43;;;;;;;29.24;100.00;63936.69;5090852;28;20224;-74
2022/05/28 10:13:47;;;;;;;21.40;6.87;;;;;;;29.52;100.00;63967.19;5091416;28;20193;-76
2022/05/28 10:16:21;;;;;;;14.23;5.30;;;;;;;29.66;100.00;63981.94;5091270;28;20632;-74
2022/05/28 10:18:55;;;;;;;10.70;5.30;;;;;;;29.35;100.00;63953.38;5091981;28;20199;-77
2022/05/28 10:21:34;;;;;;;9.97;5.30;;;;;;;29.37;100.00;63950.31;5091379;28;20220;-74
2022/05/28 10:24:10;;;;;;;13.60;5.77;;;;;;;28.97;100.00;63913.03;5078485;28;20748;-76
2022/05/28 10:26:52;;;;;;;10.77;5.37;;;;;;;29.17;100.00;63931.69;5091331;28;20300;-75
2022/05/28 10:29:21;;;;;;;15.10;5.67;;;;;;;29.27;100.00;63939.41;5091287;28;20632;-76
2022/05/28 10:31:50;;;;;;;16.03;6.10;;;;;;;29.42;100.00;63956.28;5090742;28;20224;-77
2022/05/28 10:34:38;;;;;;;10.03;4.80;;;;;;;28.51;100.00;63857.13;5091309;28;20263;-76
2022/05/28 10:37:11;;;;;;;10.80;4.87;;;;;;;28.28;100.00;63832.63;5088262;28;20234;-75
2022/05/28 10:39:38;;;;;;;9.67;4.27;;;;;;;28.38;100.00;63848.75;5091304;28;20672;-74
2022/05/28 10:42:08;;;;;;;12.40;4.23;;;;;;;27.81;100.00;63781.44;5091368;28;20595;-74
2022/05/28 10:44:36;;;;;;;12.10;5.03;;;;;;;27.62;100.00;63761.31;5095290;28;20646;-76
2022/05/28 10:47:26;;;;;;;14.10;4.50;;;;;;;28.14;100.00;63814.75;5095127;28;20199;-75
2022/05/28 10:50:09;;;;;;;9.70;4.60;;;;;;;28.71;100.00;63879.47;5095555;28;20272;-75
2022/05/28 10:52:49;;;;;;;12.30;4.70;;;;;;;29.12;100.00;63921.50;5094722;28;20223;-74
2022/05/28 10:55:25;;;;;;;12.00;5.53;;;;;;;28.94;100.00;63899.28;5095011;28;20290;-75
2022/05/28 10:58:21;;;;;;;14.43;5.53;;;;;;;29.72;100.00;63988.50;5076563;28;20201;-73
2022/05/28 11:00:59;;;;;;;12.40;5.07;;;;;;;30.03;100.00;64022.28;5069597;28;20197;-74
2022/05/28 11:03:47;;;;;;;11.60;4.93;;;;;;;30.63;100.00;64087.75;5095143;28;20662;-76
2022/05/28 11:06:51;;;;;;;12.97;5.03;;;;;;;30.72;100.00;64097.56;5094983;28;20214;-76
2022/05/28 11:09:29;;;;;;;13.00;5.43;;;;;;;30.65;100.00;64089.38;5094756;28;20199;-74
2022/05/28 11:12:04;;;;;;;9.27;4.73;;;;;;;30.31;100.00;64047.56;5094598;28;20309;-75
2022/05/28 11:14:54;;;;;;;11.27;4.93;;;;;;;30.66;100.00;64090.47;5095255;28;20210;-73
2022/05/28 11:17:35;;;;;;;10.03;5.03;;;;;;;30.95;100.00;64121.59;5094989;28;20670;-74
2022/05/28 11:20:16;;;;;;;14.93;5.03;;;;;;;30.66;100.00;64088.41;5094756;28;20264;-76
2022/05/28 11:23:20;;;;;;;17.57;5.57;;;;;;;31.44;100.00;64169.81;5094749;28;20268;-75
2022/05/28 11:26:00;;;;;;;12.07;5.23;;;;;;;31.07;100.00;64134.69;5094942;28;20235;-74
2022/05/28 11:28:46;;;;;;;10.07;4.97;;;;;;;30.88;100.00;64113.94;5094553;28;20200;-74
2022/05/28 11:31:24;;;;;;;16.87;5.70;;;;;;;30.79;100.00;64099.94;5094508;28;20200;-73
2022/05/28 11:33:54;;;;;;;12.97;5.07;;;;;;;30.75;100.00;64100.84;5095012;28;20302;-73
2022/05/28 11:36:28;;;;;;;17.00;5.43;;;;;;;30.41;100.00;64069.00;5099552;28;20231;-75
2022/05/28 11:39:07;;;;;;;11.37;5.13;;;;;;;30.70;100.00;64098.03;5096256;28;20195;-75
2022/05/28 11:41:37;;;;;;;10.17;5.27;;;;;;;30.49;100.00;64069.28;5094632;28;20203;-74
2022/05/28 11:44:11;;;;;;;21.57;5.43;;;;;;;30.23;100.00;64041.47;5094665;28;20203;-73
2022/05/28 11:46:42;;;;;;;14.97;5.67;;;;;;;30.34;100.00;64056.13;5094510;28;20253;-73